sensor_id;sensor_type;location;lat;lon;timestamp;P1;durP1;ratioP1;P2;durP2;ratioP2
29954;SDS011;68448;51.188;6.868;2024-03-02T00:00:37;3.60;;;2.10;;
29954;SDS011;68448;51.188;6.868;2024-03-02T00:03:06;2.67;;;1.90;;
29954;SDS011;68448;51.188;6.868;2024-03-02T00:05:33;2.57;;;1.93;;
29954;SDS011;68448;51.188;6.868;2024-03-02T00:08:01;2.00;;;1.77;;
29954;SDS011;68448;51.188;6.868;2024-03-02T00:10:30;1.70;;;1.60;;
29954;SDS011;68448;51.188;6.868;2024-03-02T00:13:02;2.67;;;1.83;;
29954;SDS011;68448;51.188;6.868;2024-03-02T00:15:34;4.10;;;1.80;;
29954;SDS011;68448;51.188;6.868;2024-03-02T00:18:08;2.10;;;1.90;;
29954;SDS011;68448;51.188;6.868;2024-03-02T00:20:37;2.50;;;1.83;;
29954;SDS011;68448;51.188;6.868;2024-03-02T00:23:05;2.07;;;1.87;;
29954;SDS011;68448;51.188;6.868;2024-03-02T00:25:36;2.27;;;2.00;;
29954;SDS011;68448;51.188;6.868;2024-03-02T00:28:04;2.70;;;1.70;;
29954;SDS011;68448;51.188;6.868;2024-03-02T00:30:46;2.80;;;1.70;;
29954;SDS011;68448;51.188;6.868;2024-03-02T00:33:19;2.57;;;1.87;;
29954;SDS011;68448;51.188;6.868;2024-03-02T00:35:48;1.60;;;1.50;;
29954;SDS011;68448;51.188;6.868;2024-03-02T00:38:15;2.90;;;2.00;;
29954;SDS011;68448;51.188;6.868;2024-03-02T00:40:43;2.63;;;1.80;;
29954;SDS011;68448;51.188;6.868;2024-03-02T00:43:15;3.93;;;2.17;;
29954;SDS011;68448;51.188;6.868;2024-03-02T00:45:46;2.17;;;1.97;;
29954;SDS011;68448;51.188;6.868;2024-03-02T00:48:14;2.50;;;1.70;;
29954;SDS011;68448;51.188;6.868;2024-03-02T00:50:43;2.20;;;1.87;;
29954;SDS011;68448;51.188;6.868;2024-03-02T00:53:11;3.27;;;1.80;;
29954;SDS011;68448;51.188;6.868;2024-03-02T00:55:39;2.30;;;1.90;;
29954;SDS011;68448;51.188;6.868;2024-03-02T00:58:06;4.00;;;2.17;;
29954;SDS011;68448;51.188;6.868;2024-03-02T01:00:34;3.00;;;1.70;;
29954;SDS011;68448;51.188;6.868;2024-03-02T01:03:01;5.03;;;1.43;;
29954;SDS011;68448;51.188;6.868;2024-03-02T01:05:28;2.13;;;1.93;;
29954;SDS011;68448;51.188;6.868;2024-03-02T01:07:57;2.50;;;1.80;;
29954;SDS011;68448;51.188;6.868;2024-03-02T01:10:24;2.20;;;1.90;;
29954;SDS011;68448;51.188;6.868;2024-03-02T01:12:51;2.30;;;2.10;;
29954;SDS011;68448;51.188;6.868;2024-03-02T01:15:18;1.70;;;1.60;;
29954;SDS011;68448;51.188;6.868;2024-03-02T01:17:46;2.57;;;1.90;;
29954;SDS011;68448;51.188;6.868;2024-03-02T01:20:13;2.00;;;1.77;;
29954;SDS011;68448;51.188;6.868;2024-03-02T01:22:40;3.10;;;2.10;;
29954;SDS011;68448;51.188;6.868;2024-03-02T01:25:09;2.00;;;1.70;;
29954;SDS011;68448;51.188;6.868;2024-03-02T01:27:36;2.80;;;1.73;;
29954;SDS011;68448;51.188;6.868;2024-03-02T01:30:04;3.40;;;1.67;;
29954;SDS011;68448;51.188;6.868;2024-03-02T01:32:31;2.40;;;1.93;;
29954;SDS011;68448;51.188;6.868;2024-03-02T01:34:59;2.40;;;1.67;;
29954;SDS011;68448;51.188;6.868;2024-03-02T01:37:26;2.20;;;1.90;;
29954;SDS011;68448;51.188;6.868;2024-03-02T01:39:53;2.07;;;1.80;;
29954;SDS011;68448;51.188;6.868;2024-03-02T01:42:22;2.73;;;1.90;;
29954;SDS011;68448;51.188;6.868;2024-03-02T01:44:49;2.80;;;1.67;;
29954;SDS011;68448;51.188;6.868;2024-03-02T01:47:17;6.00;;;1.90;;
29954;SDS011;68448;51.188;6.868;2024-03-02T01:49:44;2.27;;;1.63;;
29954;SDS011;68448;51.188;6.868;2024-03-02T01:52:11;3.70;;;1.90;;
29954;SDS011;68448;51.188;6.868;2024-03-02T01:54:38;3.10;;;1.80;;
29954;SDS011;68448;51.188;6.868;2024-03-02T01:57:06;4.17;;;2.10;;
29954;SDS011;68448;51.188;6.868;2024-03-02T01:59:34;3.90;;;1.87;;
29954;SDS011;68448;51.188;6.868;2024-03-02T02:02:02;2.50;;;1.90;;
29954;SDS011;68448;51.188;6.868;2024-03-02T02:04:29;3.50;;;1.53;;
29954;SDS011;68448;51.188;6.868;2024-03-02T02:06:57;3.73;;;1.90;;
29954;SDS011;68448;51.188;6.868;2024-03-02T02:09:24;3.23;;;1.80;;
29954;SDS011;68448;51.188;6.868;2024-03-02T02:11:51;2.63;;;1.80;;
29954;SDS011;68448;51.188;6.868;2024-03-02T02:14:19;2.73;;;1.97;;
29954;SDS011;68448;51.188;6.868;2024-03-02T02:16:48;1.43;;;1.30;;
29954;SDS011;68448;51.188;6.868;2024-03-02T02:19:15;2.10;;;1.83;;
29954;SDS011;68448;51.188;6.868;2024-03-02T02:21:44;1.90;;;1.70;;
29954;SDS011;68448;51.188;6.868;2024-03-02T02:24:11;3.07;;;1.73;;
29954;SDS011;68448;51.188;6.868;2024-03-02T02:26:38;2.73;;;1.70;;
29954;SDS011;68448;51.188;6.868;2024-03-02T02:29:05;9.90;;;2.33;;
29954;SDS011;68448;51.188;6.868;2024-03-02T02:31:36;3.60;;;1.77;;
29954;SDS011;68448;51.188;6.868;2024-03-02T02:34:03;3.77;;;1.50;;
29954;SDS011;68448;51.188;6.868;2024-03-02T02:36:31;2.70;;;1.67;;
29954;SDS011;68448;51.188;6.868;2024-03-02T02:38:59;2.50;;;1.83;;
29954;SDS011;68448;51.188;6.868;2024-03-02T02:41:29;2.53;;;1.60;;
29954;SDS011;68448;51.188;6.868;2024-03-02T02:43:56;3.40;;;2.20;;
29954;SDS011;68448;51.188;6.868;2024-03-02T02:46:23;3.90;;;1.90;;
29954;SDS011;68448;51.188;6.868;2024-03-02T02:48:50;3.50;;;2.10;;
29954;SDS011;68448;51.188;6.868;2024-03-02T02:51:17;3.47;;;2.00;;
29954;SDS011;68448;51.188;6.868;2024-03-02T02:53:45;2.30;;;1.80;;
29954;SDS011;68448;51.188;6.868;2024-03-02T02:56:14;2.33;;;1.77;;
29954;SDS011;68448;51.188;6.868;2024-03-02T02:58:41;5.00;;;1.87;;
29954;SDS011;68448;51.188;6.868;2024-03-02T03:01:08;4.40;;;2.03;;
29954;SDS011;68448;51.188;6.868;2024-03-02T03:03:36;5.00;;;2.30;;
29954;SDS011;68448;51.188;6.868;2024-03-02T03:06:03;2.63;;;1.67;;
29954;SDS011;68448;51.188;6.868;2024-03-02T03:08:30;4.10;;;1.97;;
29954;SDS011;68448;51.188;6.868;2024-03-02T03:10:58;2.40;;;1.70;;
29954;SDS011;68448;51.188;6.868;2024-03-02T03:13:26;2.63;;;1.90;;
29954;SDS011;68448;51.188;6.868;2024-03-02T03:15:54;4.83;;;1.80;;
29954;SDS011;68448;51.188;6.868;2024-03-02T03:18:21;3.00;;;2.00;;
29954;SDS011;68448;51.188;6.868;2024-03-02T03:20:48;2.53;;;1.60;;
29954;SDS011;68448;51.188;6.868;2024-03-02T03:23:16;2.90;;;2.00;;
29954;SDS011;68448;51.188;6.868;2024-03-02T03:25:43;4.03;;;2.00;;
29954;SDS011;68448;51.188;6.868;2024-03-02T03:28:10;4.00;;;2.70;;
29954;SDS011;68448;51.188;6.868;2024-03-02T03:30:40;2.20;;;1.60;;
29954;SDS011;68448;51.188;6.868;2024-03-02T03:33:07;2.57;;;2.07;;
29954;SDS011;68448;51.188;6.868;2024-03-02T03:35:34;1.80;;;1.47;;
29954;SDS011;68448;51.188;6.868;2024-03-02T03:38:02;6.93;;;1.90;;
29954;SDS011;68448;51.188;6.868;2024-03-02T03:40:29;1.80;;;1.70;;
29954;SDS011;68448;51.188;6.868;2024-03-02T03:42:56;4.10;;;1.90;;
29954;SDS011;68448;51.188;6.868;2024-03-02T03:45:23;2.07;;;1.80;;
29954;SDS011;68448;51.188;6.868;2024-03-02T03:47:52;1.57;;;1.47;;
29954;SDS011;68448;51.188;6.868;2024-03-02T03:50:19;4.77;;;1.60;;
29954;SDS011;68448;51.188;6.868;2024-03-02T03:52:46;2.33;;;1.60;;
29954;SDS011;68448;51.188;6.868;2024-03-02T03:55:13;2.83;;;1.67;;
29954;SDS011;68448;51.188;6.868;2024-03-02T03:57:41;1.77;;;1.47;;
29954;SDS011;68448;51.188;6.868;2024-03-02T04:00:08;2.23;;;1.50;;
29954;SDS011;68448;51.188;6.868;2024-03-02T04:02:38;3.73;;;1.73;;
29954;SDS011;68448;51.188;6.868;2024-03-02T04:05:07;3.73;;;1.73;;
29954;SDS011;68448;51.188;6.868;2024-03-02T04:07:35;2.63;;;1.43;;
29954;SDS011;68448;51.188;6.868;2024-03-02T04:10:03;1.83;;;1.20;;
29954;SDS011;68448;51.188;6.868;2024-03-02T04:12:30;2.93;;;2.27;;
29954;SDS011;68448;51.188;6.868;2024-03-02T04:14:57;2.33;;;2.13;;
29954;SDS011;68448;51.188;6.868;2024-03-02T04:17:25;5.40;;;1.50;;
29954;SDS011;68448;51.188;6.868;2024-03-02T04:19:52;1.50;;;1.40;;
29954;SDS011;68448;51.188;6.868;2024-03-02T04:22:20;2.70;;;1.87;;
29954;SDS011;68448;51.188;6.868;2024-03-02T04:24:51;2.10;;;1.90;;
29954;SDS011;68448;51.188;6.868;2024-03-02T04:27:18;1.80;;;1.70;;
29954;SDS011;68448;51.188;6.868;2024-03-02T04:29:45;2.03;;;1.83;;
29954;SDS011;68448;51.188;6.868;2024-03-02T04:32:12;4.17;;;1.80;;
29954;SDS011;68448;51.188;6.868;2024-03-02T04:34:39;2.63;;;1.70;;
29954;SDS011;68448;51.188;6.868;2024-03-02T04:37:08;2.30;;;1.80;;
29954;SDS011;68448;51.188;6.868;2024-03-02T04:39:36;2.47;;;1.87;;
29954;SDS011;68448;51.188;6.868;2024-03-02T04:42:04;2.37;;;1.70;;
29954;SDS011;68448;51.188;6.868;2024-03-02T04:44:31;5.03;;;2.03;;
29954;SDS011;68448;51.188;6.868;2024-03-02T04:46:58;2.20;;;1.80;;
29954;SDS011;68448;51.188;6.868;2024-03-02T04:49:25;1.70;;;1.60;;
29954;SDS011;68448;51.188;6.868;2024-03-02T04:51:53;2.43;;;1.57;;
29954;SDS011;68448;51.188;6.868;2024-03-02T04:54:20;2.10;;;1.93;;
29954;SDS011;68448;51.188;6.868;2024-03-02T04:56:49;2.07;;;1.80;;
29954;SDS011;68448;51.188;6.868;2024-03-02T04:59:16;7.23;;;2.30;;
29954;SDS011;68448;51.188;6.868;2024-03-02T05:01:44;3.43;;;1.73;;
29954;SDS011;68448;51.188;6.868;2024-03-02T05:04:12;2.40;;;1.97;;
29954;SDS011;68448;51.188;6.868;2024-03-02T05:06:39;4.70;;;2.10;;
29954;SDS011;68448;51.188;6.868;2024-03-02T05:09:07;2.00;;;1.80;;
29954;SDS011;68448;51.188;6.868;2024-03-02T05:11:34;5.40;;;2.07;;
29954;SDS011;68448;51.188;6.868;2024-03-02T05:14:02;3.50;;;2.30;;
29954;SDS011;68448;51.188;6.868;2024-03-02T05:16:32;3.30;;;1.77;;
29954;SDS011;68448;51.188;6.868;2024-03-02T05:18:59;4.07;;;1.97;;
29954;SDS011;68448;51.188;6.868;2024-03-02T05:21:27;2.60;;;2.00;;
29954;SDS011;68448;51.188;6.868;2024-03-02T05:23:54;3.37;;;2.07;;
29954;SDS011;68448;51.188;6.868;2024-03-02T05:26:21;3.60;;;1.50;;
29954;SDS011;68448;51.188;6.868;2024-03-02T05:28:49;3.50;;;2.17;;
29954;SDS011;68448;51.188;6.868;2024-03-02T05:31:17;2.77;;;1.70;;
29954;SDS011;68448;51.188;6.868;2024-03-02T05:33:44;3.27;;;1.87;;
29954;SDS011;68448;51.188;6.868;2024-03-02T05:36:12;3.50;;;2.10;;
29954;SDS011;68448;51.188;6.868;2024-03-02T05:38:39;5.90;;;2.20;;
29954;SDS011;68448;51.188;6.868;2024-03-02T05:41:06;3.67;;;2.27;;
29954;SDS011;68448;51.188;6.868;2024-03-02T05:43:33;3.30;;;1.87;;
29954;SDS011;68448;51.188;6.868;2024-03-02T05:46:00;2.80;;;2.17;;
29954;SDS011;68448;51.188;6.868;2024-03-02T05:48:29;3.27;;;1.97;;
29954;SDS011;68448;51.188;6.868;2024-03-02T05:50:56;1.93;;;1.83;;
29954;SDS011;68448;51.188;6.868;2024-03-02T05:53:23;2.13;;;1.73;;
29954;SDS011;68448;51.188;6.868;2024-03-02T05:55:52;1.90;;;1.70;;
29954;SDS011;68448;51.188;6.868;2024-03-02T05:58:19;2.10;;;1.67;;
29954;SDS011;68448;51.188;6.868;2024-03-02T06:00:46;2.23;;;1.90;;
29954;SDS011;68448;51.188;6.868;2024-03-02T06:03:14;2.97;;;2.17;;
29954;SDS011;68448;51.188;6.868;2024-03-02T06:05:43;3.93;;;2.10;;
29954;SDS011;68448;51.188;6.868;2024-03-02T06:08:10;2.57;;;1.70;;
29954;SDS011;68448;51.188;6.868;2024-03-02T06:10:37;1.50;;;1.40;;
29954;SDS011;68448;51.188;6.868;2024-03-02T06:13:05;2.80;;;2.03;;
29954;SDS011;68448;51.188;6.868;2024-03-02T06:15:33;4.67;;;1.67;;
29954;SDS011;68448;51.188;6.868;2024-03-02T06:18:00;2.33;;;1.97;;
29954;SDS011;68448;51.188;6.868;2024-03-02T06:20:27;3.50;;;2.20;;
29954;SDS011;68448;51.188;6.868;2024-03-02T06:22:58;3.53;;;1.97;;
29954;SDS011;68448;51.188;6.868;2024-03-02T06:25:25;2.27;;;1.80;;
29954;SDS011;68448;51.188;6.868;2024-03-02T06:27:52;4.83;;;2.13;;
29954;SDS011;68448;51.188;6.868;2024-03-02T06:30:20;2.40;;;2.10;;
29954;SDS011;68448;51.188;6.868;2024-03-02T06:32:47;2.30;;;2.10;;
29954;SDS011;68448;51.188;6.868;2024-03-02T06:35:14;4.40;;;2.00;;
29954;SDS011;68448;51.188;6.868;2024-03-02T06:37:42;5.73;;;2.20;;
29954;SDS011;68448;51.188;6.868;2024-03-02T06:40:10;5.40;;;2.40;;
29954;SDS011;68448;51.188;6.868;2024-03-02T06:42:38;3.10;;;2.50;;
29954;SDS011;68448;51.188;6.868;2024-03-02T06:45:06;4.67;;;2.70;;
29954;SDS011;68448;51.188;6.868;2024-03-02T06:47:33;3.20;;;2.57;;
29954;SDS011;68448;51.188;6.868;2024-03-02T06:50:00;3.63;;;2.80;;
29954;SDS011;68448;51.188;6.868;2024-03-02T06:52:27;2.40;;;2.03;;
29954;SDS011;68448;51.188;6.868;2024-03-02T06:54:54;2.90;;;2.60;;
29954;SDS011;68448;51.188;6.868;2024-03-02T06:57:23;2.60;;;2.30;;
29954;SDS011;68448;51.188;6.868;2024-03-02T06:59:51;3.80;;;3.00;;
29954;SDS011;68448;51.188;6.868;2024-03-02T07:02:18;3.17;;;2.53;;
29954;SDS011;68448;51.188;6.868;2024-03-02T07:04:45;3.33;;;2.40;;
29954;SDS011;68448;51.188;6.868;2024-03-02T07:07:12;3.23;;;2.23;;
29954;SDS011;68448;51.188;6.868;2024-03-02T07:09:40;2.67;;;2.40;;
29954;SDS011;68448;51.188;6.868;2024-03-02T07:12:07;5.20;;;2.53;;
29954;SDS011;68448;51.188;6.868;2024-03-02T07:14:36;3.63;;;2.47;;
29954;SDS011;68448;51.188;6.868;2024-03-02T07:17:04;3.23;;;2.37;;
29954;SDS011;68448;51.188;6.868;2024-03-02T07:19:31;2.70;;;2.23;;
29954;SDS011;68448;51.188;6.868;2024-03-02T07:21:59;5.30;;;2.50;;
29954;SDS011;68448;51.188;6.868;2024-03-02T07:24:27;7.17;;;2.90;;
29954;SDS011;68448;51.188;6.868;2024-03-02T07:26:54;6.53;;;2.63;;
29954;SDS011;68448;51.188;6.868;2024-03-02T07:29:21;3.43;;;2.47;;
29954;SDS011;68448;51.188;6.868;2024-03-02T07:31:50;3.07;;;2.30;;
29954;SDS011;68448;51.188;6.868;2024-03-02T07:34:17;3.90;;;2.53;;
29954;SDS011;68448;51.188;6.868;2024-03-02T07:36:45;3.50;;;2.10;;
29954;SDS011;68448;51.188;6.868;2024-03-02T07:39:12;2.87;;;2.30;;
29954;SDS011;68448;51.188;6.868;2024-03-02T07:41:39;7.40;;;2.80;;
29954;SDS011;68448;51.188;6.868;2024-03-02T07:44:07;2.63;;;2.33;;
29954;SDS011;68448;51.188;6.868;2024-03-02T07:46:34;4.30;;;2.73;;
29954;SDS011;68448;51.188;6.868;2024-03-02T07:49:04;3.63;;;2.47;;
29954;SDS011;68448;51.188;6.868;2024-03-02T07:51:31;4.50;;;2.87;;
29954;SDS011;68448;51.188;6.868;2024-03-02T07:53:58;7.93;;;3.50;;
29954;SDS011;68448;51.188;6.868;2024-03-02T07:56:26;3.37;;;2.47;;
29954;SDS011;68448;51.188;6.868;2024-03-02T07:58:53;4.43;;;3.30;;
29954;SDS011;68448;51.188;6.868;2024-03-02T08:01:21;3.50;;;2.50;;
29954;SDS011;68448;51.188;6.868;2024-03-02T08:03:48;10.60;;;2.90;;
29954;SDS011;68448;51.188;6.868;2024-03-02T08:06:17;2.43;;;2.23;;
29954;SDS011;68448;51.188;6.868;2024-03-02T08:08:45;3.13;;;2.63;;
29954;SDS011;68448;51.188;6.868;2024-03-02T08:11:12;3.43;;;2.37;;
29954;SDS011;68448;51.188;6.868;2024-03-02T08:13:39;3.53;;;2.00;;
29954;SDS011;68448;51.188;6.868;2024-03-02T08:16:06;3.50;;;2.50;;
29954;SDS011;68448;51.188;6.868;2024-03-02T08:18:34;2.53;;;2.33;;
29954;SDS011;68448;51.188;6.868;2024-03-02T08:21:01;2.83;;;2.13;;
29954;SDS011;68448;51.188;6.868;2024-03-02T08:23:30;2.30;;;2.03;;
29954;SDS011;68448;51.188;6.868;2024-03-02T08:25:57;2.83;;;2.30;;
29954;SDS011;68448;51.188;6.868;2024-03-02T08:28:24;2.53;;;1.97;;
29954;SDS011;68448;51.188;6.868;2024-03-02T08:30:51;2.27;;;1.90;;
29954;SDS011;68448;51.188;6.868;2024-03-02T08:33:19;3.40;;;2.03;;
29954;SDS011;68448;51.188;6.868;2024-03-02T08:35:46;4.87;;;2.40;;
29954;SDS011;68448;51.188;6.868;2024-03-02T08:38:13;3.80;;;2.50;;
29954;SDS011;68448;51.188;6.868;2024-03-02T08:40:42;5.97;;;2.50;;
29954;SDS011;68448;51.188;6.868;2024-03-02T08:43:09;4.23;;;2.23;;
29954;SDS011;68448;51.188;6.868;2024-03-02T08:45:36;3.10;;;2.67;;
29954;SDS011;68448;51.188;6.868;2024-03-02T08:48:04;4.43;;;2.70;;
29954;SDS011;68448;51.188;6.868;2024-03-02T08:50:31;3.20;;;2.20;;
29954;SDS011;68448;51.188;6.868;2024-03-02T08:52:59;2.37;;;2.13;;
29954;SDS011;68448;51.188;6.868;2024-03-02T08:55:26;3.80;;;2.30;;
29954;SDS011;68448;51.188;6.868;2024-03-02T08:57:54;2.90;;;2.50;;
29954;SDS011;68448;51.188;6.868;2024-03-02T09:00:22;2.53;;;2.23;;
29954;SDS011;68448;51.188;6.868;2024-03-02T09:02:50;6.10;;;2.77;;
29954;SDS011;68448;51.188;6.868;2024-03-02T09:05:17;3.10;;;2.50;;
29954;SDS011;68448;51.188;6.868;2024-03-02T09:07:44;5.30;;;2.63;;
29954;SDS011;68448;51.188;6.868;2024-03-02T09:10:11;5.00;;;2.70;;
29954;SDS011;68448;51.188;6.868;2024-03-02T09:12:39;3.93;;;2.43;;
29954;SDS011;68448;51.188;6.868;2024-03-02T09:15:08;3.17;;;2.57;;
29954;SDS011;68448;51.188;6.868;2024-03-02T09:17:35;3.40;;;2.27;;
29954;SDS011;68448;51.188;6.868;2024-03-02T09:20:02;2.10;;;2.00;;
29954;SDS011;68448;51.188;6.868;2024-03-02T09:22:29;2.47;;;2.27;;
29954;SDS011;68448;51.188;6.868;2024-03-02T09:24:56;3.20;;;2.50;;
29954;SDS011;68448;51.188;6.868;2024-03-02T09:27:24;2.80;;;2.60;;
29954;SDS011;68448;51.188;6.868;2024-03-02T09:29:51;4.50;;;1.90;;
29954;SDS011;68448;51.188;6.868;2024-03-02T09:32:19;3.10;;;2.13;;
29954;SDS011;68448;51.188;6.868;2024-03-02T09:34:47;3.40;;;2.07;;
29954;SDS011;68448;51.188;6.868;2024-03-02T09:37:14;3.57;;;2.07;;
29954;SDS011;68448;51.188;6.868;2024-03-02T09:39:43;1.77;;;1.63;;
29954;SDS011;68448;51.188;6.868;2024-03-02T09:42:10;1.67;;;1.57;;
29954;SDS011;68448;51.188;6.868;2024-03-02T09:44:38;3.00;;;1.20;;
29954;SDS011;68448;51.188;6.868;2024-03-02T09:47:06;1.53;;;1.27;;
29954;SDS011;68448;51.188;6.868;2024-03-02T09:49:35;1.73;;;1.30;;
29954;SDS011;68448;51.188;6.868;2024-03-02T09:52:05;1.90;;;1.50;;
29954;SDS011;68448;51.188;6.868;2024-03-02T09:54:34;6.27;;;1.83;;
29954;SDS011;68448;51.188;6.868;2024-03-02T09:57:01;2.73;;;1.83;;
29954;SDS011;68448;51.188;6.868;2024-03-02T09:59:28;1.27;;;1.17;;
29954;SDS011;68448;51.188;6.868;2024-03-02T10:01:56;1.50;;;1.40;;
29954;SDS011;68448;51.188;6.868;2024-03-02T10:04:23;2.47;;;1.50;;
29954;SDS011;68448;51.188;6.868;2024-03-02T10:06:54;3.20;;;1.40;;
29954;SDS011;68448;51.188;6.868;2024-03-02T10:09:35;2.00;;;1.67;;
29954;SDS011;68448;51.188;6.868;2024-03-02T10:12:03;2.00;;;1.70;;
29954;SDS011;68448;51.188;6.868;2024-03-02T10:14:30;2.27;;;1.60;;
29954;SDS011;68448;51.188;6.868;2024-03-02T10:17:01;3.43;;;1.67;;
29954;SDS011;68448;51.188;6.868;2024-03-02T10:19:28;2.50;;;1.97;;
29954;SDS011;68448;51.188;6.868;2024-03-02T10:21:57;2.47;;;2.20;;
29954;SDS011;68448;51.188;6.868;2024-03-02T10:24:27;2.40;;;1.70;;
29954;SDS011;68448;51.188;6.868;2024-03-02T10:26:54;2.03;;;1.70;;
29954;SDS011;68448;51.188;6.868;2024-03-02T10:29:21;2.43;;;1.80;;
29954;SDS011;68448;51.188;6.868;2024-03-02T10:31:48;4.93;;;1.70;;
29954;SDS011;68448;51.188;6.868;2024-03-02T10:34:15;2.50;;;2.13;;
29954;SDS011;68448;51.188;6.868;2024-03-02T10:36:43;1.90;;;1.80;;
29954;SDS011;68448;51.188;6.868;2024-03-02T10:39:12;4.97;;;2.13;;
29954;SDS011;68448;51.188;6.868;2024-03-02T10:41:40;2.07;;;1.87;;
29954;SDS011;68448;51.188;6.868;2024-03-02T10:44:08;3.67;;;1.90;;
29954;SDS011;68448;51.188;6.868;2024-03-02T10:46:35;2.47;;;1.90;;
29954;SDS011;68448;51.188;6.868;2024-03-02T10:49:03;1.83;;;1.70;;
29954;SDS011;68448;51.188;6.868;2024-03-02T10:51:34;3.10;;;2.20;;
29954;SDS011;68448;51.188;6.868;2024-03-02T10:54:02;2.50;;;1.87;;
29954;SDS011;68448;51.188;6.868;2024-03-02T10:56:31;6.30;;;1.90;;
29954;SDS011;68448;51.188;6.868;2024-03-02T10:59:02;1.93;;;1.70;;
29954;SDS011;68448;51.188;6.868;2024-03-02T11:01:31;1.87;;;1.70;;
29954;SDS011;68448;51.188;6.868;2024-03-02T11:03:59;1.70;;;1.60;;
29954;SDS011;68448;51.188;6.868;2024-03-02T11:06:27;4.67;;;2.00;;
29954;SDS011;68448;51.188;6.868;2024-03-02T11:08:55;2.30;;;1.93;;
29954;SDS011;68448;51.188;6.868;2024-03-02T11:11:27;2.03;;;1.80;;
29954;SDS011;68448;51.188;6.868;2024-03-02T11:13:57;2.47;;;2.03;;
29954;SDS011;68448;51.188;6.868;2024-03-02T11:16:27;4.17;;;1.60;;
29954;SDS011;68448;51.188;6.868;2024-03-02T11:18:58;5.07;;;1.80;;
29954;SDS011;68448;51.188;6.868;2024-03-02T11:21:26;2.83;;;1.50;;
29954;SDS011;68448;51.188;6.868;2024-03-02T11:23:53;2.00;;;1.67;;
29954;SDS011;68448;51.188;6.868;2024-03-02T11:26:21;3.50;;;1.70;;
29954;SDS011;68448;51.188;6.868;2024-03-02T11:28:48;1.43;;;1.33;;
29954;SDS011;68448;51.188;6.868;2024-03-02T11:31:16;3.00;;;1.63;;
29954;SDS011;68448;51.188;6.868;2024-03-02T11:33:43;2.20;;;2.00;;
29954;SDS011;68448;51.188;6.868;2024-03-02T11:36:11;2.67;;;1.90;;
29954;SDS011;68448;51.188;6.868;2024-03-02T11:38:38;6.73;;;2.33;;
29954;SDS011;68448;51.188;6.868;2024-03-02T11:41:06;2.23;;;1.30;;
29954;SDS011;68448;51.188;6.868;2024-03-02T11:43:36;1.87;;;1.67;;
29954;SDS011;68448;51.188;6.868;2024-03-02T11:46:04;3.20;;;1.80;;
29954;SDS011;68448;51.188;6.868;2024-03-02T11:48:33;2.73;;;1.80;;
29954;SDS011;68448;51.188;6.868;2024-03-02T11:51:01;3.00;;;2.00;;
29954;SDS011;68448;51.188;6.868;2024-03-02T11:53:28;2.97;;;1.47;;
29954;SDS011;68448;51.188;6.868;2024-03-02T11:56:00;2.67;;;1.90;;
29954;SDS011;68448;51.188;6.868;2024-03-02T11:58:28;3.10;;;1.70;;
29954;SDS011;68448;51.188;6.868;2024-03-02T12:00:55;2.40;;;1.60;;
29954;SDS011;68448;51.188;6.868;2024-03-02T12:03:23;4.00;;;1.60;;
29954;SDS011;68448;51.188;6.868;2024-03-02T12:05:52;1.60;;;1.23;;
29954;SDS011;68448;51.188;6.868;2024-03-02T12:08:19;2.20;;;1.30;;
29954;SDS011;68448;51.188;6.868;2024-03-02T12:10:55;3.50;;;1.50;;
29954;SDS011;68448;51.188;6.868;2024-03-02T12:13:23;4.57;;;1.70;;
29954;SDS011;68448;51.188;6.868;2024-03-02T12:15:52;1.80;;;1.50;;
29954;SDS011;68448;51.188;6.868;2024-03-02T12:18:20;1.90;;;1.50;;
29954;SDS011;68448;51.188;6.868;2024-03-02T12:20:48;2.20;;;1.33;;
29954;SDS011;68448;51.188;6.868;2024-03-02T12:23:16;2.93;;;1.50;;
29954;SDS011;68448;51.188;6.868;2024-03-02T12:25:44;1.33;;;1.07;;
29954;SDS011;68448;51.188;6.868;2024-03-02T12:28:12;3.93;;;2.07;;
29954;SDS011;68448;51.188;6.868;2024-03-02T12:30:39;3.07;;;1.70;;
29954;SDS011;68448;51.188;6.868;2024-03-02T12:33:06;3.80;;;1.57;;
29954;SDS011;68448;51.188;6.868;2024-03-02T12:35:34;2.07;;;1.50;;
29954;SDS011;68448;51.188;6.868;2024-03-02T12:38:03;7.30;;;1.60;;
29954;SDS011;68448;51.188;6.868;2024-03-02T12:40:32;2.60;;;1.40;;
29954;SDS011;68448;51.188;6.868;2024-03-02T12:42:59;1.90;;;1.30;;
29954;SDS011;68448;51.188;6.868;2024-03-02T12:45:26;1.73;;;1.37;;
29954;SDS011;68448;51.188;6.868;2024-03-02T12:47:53;1.40;;;1.30;;
29954;SDS011;68448;51.188;6.868;2024-03-02T12:50:21;1.70;;;1.60;;
29954;SDS011;68448;51.188;6.868;2024-03-02T12:52:51;1.53;;;1.23;;
29954;SDS011;68448;51.188;6.868;2024-03-02T12:55:19;2.30;;;1.30;;
29954;SDS011;68448;51.188;6.868;2024-03-02T12:57:49;1.50;;;1.30;;
29954;SDS011;68448;51.188;6.868;2024-03-02T13:00:17;1.73;;;1.50;;
29954;SDS011;68448;51.188;6.868;2024-03-02T13:02:45;3.00;;;1.93;;
29954;SDS011;68448;51.188;6.868;2024-03-02T13:05:13;1.53;;;1.30;;
29954;SDS011;68448;51.188;6.868;2024-03-02T13:07:40;1.87;;;1.13;;
29954;SDS011;68448;51.188;6.868;2024-03-02T13:10:07;2.20;;;1.37;;
29954;SDS011;68448;51.188;6.868;2024-03-02T13:12:35;6.73;;;4.27;;
29954;SDS011;68448;51.188;6.868;2024-03-02T13:15:04;2.20;;;1.70;;
29954;SDS011;68448;51.188;6.868;2024-03-02T13:17:33;2.47;;;1.40;;
29954;SDS011;68448;51.188;6.868;2024-03-02T13:20:04;2.03;;;1.40;;
29954;SDS011;68448;51.188;6.868;2024-03-02T13:22:32;1.70;;;1.50;;
29954;SDS011;68448;51.188;6.868;2024-03-02T13:24:59;1.87;;;1.43;;
29954;SDS011;68448;51.188;6.868;2024-03-02T13:27:26;1.70;;;1.50;;
29954;SDS011;68448;51.188;6.868;2024-03-02T13:29:54;1.47;;;1.37;;
29954;SDS011;68448;51.188;6.868;2024-03-02T13:32:22;3.80;;;1.30;;
29954;SDS011;68448;51.188;6.868;2024-03-02T13:34:50;4.13;;;1.57;;
29954;SDS011;68448;51.188;6.868;2024-03-02T13:37:18;1.20;;;1.10;;
29954;SDS011;68448;51.188;6.868;2024-03-02T13:39:45;2.00;;;1.17;;
29954;SDS011;68448;51.188;6.868;2024-03-02T13:42:12;1.80;;;1.30;;
29954;SDS011;68448;51.188;6.868;2024-03-02T13:44:39;2.67;;;1.20;;
29954;SDS011;68448;51.188;6.868;2024-03-02T13:47:07;1.87;;;1.00;;
29954;SDS011;68448;51.188;6.868;2024-03-02T13:49:35;1.73;;;1.27;;
29954;SDS011;68448;51.188;6.868;2024-03-02T13:52:04;1.73;;;1.10;;
29954;SDS011;68448;51.188;6.868;2024-03-02T13:54:32;1.67;;;1.40;;
29954;SDS011;68448;51.188;6.868;2024-03-02T13:56:59;1.43;;;1.20;;
29954;SDS011;68448;51.188;6.868;2024-03-02T13:59:26;2.97;;;1.27;;
29954;SDS011;68448;51.188;6.868;2024-03-02T14:01:53;4.30;;;1.20;;
29954;SDS011;68448;51.188;6.868;2024-03-02T14:04:20;2.40;;;1.40;;
29954;SDS011;68448;51.188;6.868;2024-03-02T14:06:49;2.17;;;1.40;;
29954;SDS011;68448;51.188;6.868;2024-03-02T14:09:16;5.27;;;1.30;;
29954;SDS011;68448;51.188;6.868;2024-03-02T14:11:43;1.90;;;1.13;;
29954;SDS011;68448;51.188;6.868;2024-03-02T14:14:10;1.67;;;1.17;;
29954;SDS011;68448;51.188;6.868;2024-03-02T14:16:38;1.83;;;1.20;;
29954;SDS011;68448;51.188;6.868;2024-03-02T14:19:05;1.37;;;1.10;;
29954;SDS011;68448;51.188;6.868;2024-03-02T14:21:33;1.13;;;1.03;;
29954;SDS011;68448;51.188;6.868;2024-03-02T14:24:02;1.83;;;1.37;;
29954;SDS011;68448;51.188;6.868;2024-03-02T14:26:29;3.27;;;1.13;;
29954;SDS011;68448;51.188;6.868;2024-03-02T14:28:56;1.20;;;1.10;;
29954;SDS011;68448;51.188;6.868;2024-03-02T14:31:23;1.33;;;1.23;;
29954;SDS011;68448;51.188;6.868;2024-03-02T14:33:50;1.90;;;1.10;;
29954;SDS011;68448;51.188;6.868;2024-03-02T14:36:18;1.43;;;1.20;;
29954;SDS011;68448;51.188;6.868;2024-03-02T14:38:45;2.80;;;1.87;;
29954;SDS011;68448;51.188;6.868;2024-03-02T14:41:14;1.63;;;1.30;;
29954;SDS011;68448;51.188;6.868;2024-03-02T14:43:41;2.13;;;1.17;;
29954;SDS011;68448;51.188;6.868;2024-03-02T14:46:08;2.00;;;1.27;;
29954;SDS011;68448;51.188;6.868;2024-03-02T14:48:35;1.47;;;1.20;;
29954;SDS011;68448;51.188;6.868;2024-03-02T14:51:03;3.23;;;1.50;;